Weather reports worldwide

Advertisment
Isola Stromboli, Italy (16416): temperature & dewpoint: 23.09.2020 03:00:00 - 29.09.2020 03:00:00 (CEST)Isola Stromboli, Italy (16416): wind speed: 23.09.2020 03:00:00 - 29.09.2020 03:00:00 (CEST)Isola Stromboli, Italy (16416): wind direction: 23.09.2020 03:00:00 - 29.09.2020 03:00:00 (CEST)Isola Stromboli, Italy (16416): reduced air pressure: 23.09.2020 03:00:00 - 29.09.2020 03:00:00 (CEST)Isola Stromboli, Italy (16416): precipitation: 23.09.2020 03:00:00 - 29.09.2020 03:00:00 (CEST)
Date & Time tt [°C] td [°C] ff [km/h] ff [kn] dd ppp [hPa] rr [mm]
29.09.2020 03:00:00 - - - - - - -
29.09.2020 02:00:00 16,8 15,6 4 2 S 1016,0 0,0
29.09.2020 01:00:00 19,0 15,8 13 7 S 1016,4 -
29.09.2020 00:00:00 21,1 15,1 16 9 S 1016,0 -
28.09.2020 23:00:00 21,0 14,6 13 7 S 1015,9 -
28.09.2020 22:00:00 20,8 15,7 15 8 S 1015,6 -
28.09.2020 21:00:00 20,4 14,9 8 4 S 1015,5 -
28.09.2020 20:00:00 20,6 15,1 11 6 S 1015,1 0,0
28.09.2020 19:00:00 20,5 14,8 15 8 S 1014,7 -
28.09.2020 18:00:00 20,5 15,2 13 7 S 1014,5 -
28.09.2020 17:00:00 19,7 15,9 15 8 S 1014,5 -
28.09.2020 16:00:00 21,5 14,1 13 7 S 1014,6 -
28.09.2020 15:00:00 21,9 14,9 11 6 S 1014,7 -
28.09.2020 14:00:00 22,0 14,0 15 8 S 1014,9 0,0
28.09.2020 13:00:00 22,3 13,5 18 10 S 1014,9 -
28.09.2020 12:00:00 22,5 14,0 21 11 S 1014,4 -
28.09.2020 11:00:00 22,5 14,3 15 8 S 1013,7 -
28.09.2020 10:00:00 20,7 14,3 21 11 S 1013,3 -
28.09.2020 09:00:00 20,5 13,6 13 7 S 1012,7 -
28.09.2020 08:00:00 - - - - - - 0,0
28.09.2020 07:00:00 - - - - - - -
28.09.2020 06:00:00 - - - - - - -
28.09.2020 05:00:00 - - - - - - -
28.09.2020 04:00:00 - - - - - - -
28.09.2020 03:00:00 - - - - - - -
28.09.2020 02:00:00 - - - - - - 0,0
28.09.2020 01:00:00 - - - - - - -
28.09.2020 00:00:00 - - - - - - -
27.09.2020 23:00:00 - - - - - - -
27.09.2020 22:00:00 - - - - - - -
27.09.2020 21:00:00 - - - - - - -
27.09.2020 20:00:00 - - - - - - 0,0
27.09.2020 19:00:00 22,1 18,8 28 15 S 1004,8 -
27.09.2020 18:00:00 23,8 17,2 28 15 S 1004,7 -
27.09.2020 17:00:00 24,1 16,5 22 12 S 1005,7 -
27.09.2020 16:00:00 24,3 15,2 15 8 S 1006,1 -
27.09.2020 15:00:00 24,2 14,2 13 7 S 1007,3 -
27.09.2020 14:00:00 24,8 15,1 18 10 S 1007,8 0,0
27.09.2020 13:00:00 23,6 13,7 18 10 S 1008,6 -
27.09.2020 12:00:00 22,6 15,1 18 10 S 1009,1 -
27.09.2020 11:00:00 22,1 14,9 18 10 S 1009,0 -
27.09.2020 10:00:00 20,7 16,2 13 7 S 1009,5 -
27.09.2020 09:00:00 18,6 12,9 21 11 S 1009,1 -
27.09.2020 08:00:00 20,3 13,7 4 2 S 1008,2 0,0
27.09.2020 07:00:00 19,9 12,4 8 4 S 1008,1 -
27.09.2020 06:00:00 19,4 11,6 9 5 S 1007,9 -
27.09.2020 05:00:00 20,1 12,3 13 7 S 1007,1 -
27.09.2020 04:00:00 20,2 11,9 11 6 S 1007,7 -
27.09.2020 03:00:00 20,0 12,5 15 8 S 1007,3 -
27.09.2020 02:00:00 19,1 11,6 9 5 S 1007,7 0,0
27.09.2020 01:00:00 17,5 12,8 2 1 S 1008,1 -
27.09.2020 00:00:00 17,5 12,4 21 11 S 1008,4 -
26.09.2020 23:00:00 17,6 12,0 8 4 S 1008,2 -
26.09.2020 22:00:00 18,1 13,3 16 9 S 1008,1 -
26.09.2020 21:00:00 16,8 13,3 11 6 S 1007,5 -
26.09.2020 20:00:00 19,1 14,5 16 9 S 1006,5 0,0
26.09.2020 19:00:00 18,9 14,3 24 13 S 1005,8 -
26.09.2020 18:00:00 19,6 12,8 9 5 S 1005,0 -
26.09.2020 17:00:00 19,3 13,6 26 14 S 1005,1 -
26.09.2020 16:00:00 18,6 14,4 29 16 S 1005,1 -
26.09.2020 15:00:00 20,7 12,6 21 11 S 1004,2 -
26.09.2020 14:00:00 17,4 12,5 29 16 S 1004,4 0,0
26.09.2020 13:00:00 17,3 11,7 50 27 S 1004,5 -
26.09.2020 12:00:00 19,2 11,4 26 14 S 1003,9 -
26.09.2020 11:00:00 20,8 11,9 28 15 S 1003,0 -
26.09.2020 10:00:00 21,5 11,2 24 13 S 1002,3 -
26.09.2020 09:00:00 20,0 11,7 18 10 S 1002,2 -
26.09.2020 08:00:00 19,0 12,0 11 6 S 1002,5 0,0
26.09.2020 07:00:00 18,5 12,7 5 3 S 1002,6 -
26.09.2020 06:00:00 17,5 12,4 18 10 S 1003,4 -
26.09.2020 05:00:00 20,1 15,0 41 22 S 1002,3 -
26.09.2020 04:00:00 21,4 12,5 15 8 S 1003,2 -
26.09.2020 03:00:00 21,2 14,7 16 9 S 1003,9 -
26.09.2020 02:00:00 22,1 14,9 26 14 S 1004,0 0,0
26.09.2020 01:00:00 22,7 15,2 22 12 S 1004,7 -
26.09.2020 00:00:00 22,3 20,0 29 16 S 1004,1 -
25.09.2020 23:00:00 23,9 19,3 24 13 S 1004,4 -
25.09.2020 22:00:00 23,9 20,0 18 10 S 1004,9 -
25.09.2020 21:00:00 26,9 19,7 24 13 S 1003,9 -
25.09.2020 20:00:00 27,5 17,6 21 11 S 1004,3 0,0
25.09.2020 19:00:00 27,8 18,2 24 13 S 1004,6 -
25.09.2020 18:00:00 28,3 19,2 18 10 S 1005,0 -
25.09.2020 17:00:00 28,7 19,3 18 10 S 1005,1 -
25.09.2020 16:00:00 30,0 20,5 13 7 S 1005,6 -
25.09.2020 15:00:00 29,4 22,3 11 6 S 1006,6 -
25.09.2020 14:00:00 29,1 22,8 13 7 S 1007,3 0,0
25.09.2020 13:00:00 29,3 23,0 21 11 S 1007,9 -
25.09.2020 12:00:00 29,2 21,4 21 11 S 1008,7 -
25.09.2020 11:00:00 27,9 20,4 13 7 S 1009,2 -
25.09.2020 10:00:00 27,2 23,2 9 5 S 1009,5 -
25.09.2020 09:00:00 26,3 20,6 16 9 S 1009,7 -
25.09.2020 08:00:00 25,3 19,1 16 9 S 1010,0 0,0
25.09.2020 07:00:00 24,6 17,5 16 9 S 1010,2 -
25.09.2020 06:00:00 25,0 15,8 16 9 S 1010,6 -
25.09.2020 05:00:00 24,5 16,9 16 9 S 1011,3 -
25.09.2020 04:00:00 23,1 20,9 15 8 S 1011,7 -
25.09.2020 03:00:00 23,0 21,0 9 5 S 1012,5 -
25.09.2020 02:00:00 23,2 21,2 9 5 S 1013,1 0,0
25.09.2020 01:00:00 23,0 20,5 11 6 S 1013,6 -
25.09.2020 00:00:00 22,9 19,0 9 5 S 1014,3 -
24.09.2020 23:00:00 23,3 20,4 9 5 S 1014,5 -
24.09.2020 22:00:00 23,4 20,5 8 4 S 1015,0 -
24.09.2020 21:00:00 23,4 19,3 4 2 S 1015,1 -
24.09.2020 20:00:00 23,6 21,2 4 2 S 1014,7 0,0
24.09.2020 19:00:00 24,4 21,3 4 2 S 1014,8 -
24.09.2020 18:00:00 25,5 21,3 4 2 S 1014,9 -
24.09.2020 17:00:00 26,8 23,0 8 4 S 1014,6 -
24.09.2020 16:00:00 25,8 22,2 16 9 S 1015,0 -
24.09.2020 15:00:00 26,5 21,9 16 9 S 1015,2 -
24.09.2020 14:00:00 26,7 21,8 5 3 S 1015,2 0,0
24.09.2020 13:00:00 26,4 21,8 16 9 S 1015,2 -
24.09.2020 12:00:00 27,1 22,2 11 6 S 1015,1 -
24.09.2020 11:00:00 26,0 21,6 13 7 S 1015,5 -
24.09.2020 10:00:00 26,2 21,6 16 9 S 1015,2 -
24.09.2020 09:00:00 25,6 21,8 9 5 S 1014,7 -
24.09.2020 08:00:00 24,7 21,9 9 5 S 1014,6 0,0
24.09.2020 07:00:00 24,2 21,5 9 5 S 1014,6 -
24.09.2020 06:00:00 24,4 21,3 11 6 S 1014,3 -
24.09.2020 05:00:00 24,3 21,4 9 5 S 1014,2 -
24.09.2020 04:00:00 24,4 21,7 16 9 S 1014,2 -
24.09.2020 03:00:00 24,4 21,3 15 8 S 1013,9 -
24.09.2020 02:00:00 24,2 21,5 11 6 S 1013,9 0,0
24.09.2020 01:00:00 24,3 21,2 15 8 S 1014,0 -
24.09.2020 00:00:00 24,6 21,9 15 8 S 1014,2 -
23.09.2020 23:00:00 24,7 22,7 5 3 S 1014,0 -
23.09.2020 22:00:00 24,7 21,9 4 2 S 1014,1 -
23.09.2020 21:00:00 24,6 21,7 2 1 S 1014,0 -
23.09.2020 20:00:00 24,8 21,3 4 2 S 1013,3 0,0
23.09.2020 19:00:00 25,1 22,5 8 4 S 1013,3 -
23.09.2020 18:00:00 25,5 22,9 8 4 S 1012,5 -
23.09.2020 17:00:00 26,2 23,0 9 5 S 1012,4 -
23.09.2020 16:00:00 26,2 23,2 11 6 S 1012,7 -
23.09.2020 15:00:00 26,5 23,1 13 7 S 1013,1 -
23.09.2020 14:00:00 27,1 23,7 8 4 S 1013,5 0,0
23.09.2020 13:00:00 26,7 23,5 8 4 S 1013,9 -
23.09.2020 12:00:00 27,8 23,8 8 4 S 1014,1 -
23.09.2020 11:00:00 27,1 23,9 5 3 S 1014,3 -
23.09.2020 10:00:00 26,6 23,6 8 4 S 1014,1 -
23.09.2020 09:00:00 24,7 23,1 4 2 S 1014,3 -
23.09.2020 08:00:00 23,6 22,0 15 8 S 1014,6 0,0
23.09.2020 07:00:00 25,0 22,8 9 5 S 1014,4 -
23.09.2020 06:00:00 25,3 21,3 11 6 S 1013,4 -
23.09.2020 05:00:00 25,7 20,9 11 6 S 1013,7 -
23.09.2020 04:00:00 26,6 20,1 4 2 S 1013,9 -
23.09.2020 03:00:00 25,9 21,1 5 3 S 1014,5 -

tt = temperature
td = dewpoint
ff = wind speed
dd = wind direction
ppp = reduced air pressure
rr = precipitation

Next stations